Main page
METAR-TAF:

METAR-TAF

Airports :

Riga International Airport

Riga, Latvia

latitude: 56-55N, longitude: 023-58E, elevation: 10 m

Current weather observation

The report was made 13 minutes ago, at 12:20 UTC
Wind 4 kt from the Southeast, varying between East and South
Temperature 25°C
Humidity 39%
Pressure 1028 hPa
Visibility 10 km or more
no clouds below 1500 m and no cumulonimbus

METAR: EVRA 251220Z 14004KT 080V170 CAVOK 25/10 Q1028 NOSIG

Time: 15:33 (12:33 UTC)

Forecast

The report was made 1 hour and 33 minutes ago, at 11:00 UTC
Forecast valid from 25 at 12 UTC to 26 at 12 UTC
Wind 5 kt from the South/Southeast
Visibility 10 km or more
Scattered clouds at a height of 4000 ft
Temporary
from 25 at 23 UTC to 26 at 04 UTC
Visibility: 0600 m
Broken clouds at a height of 200 ft
fog

TAF: EVRA 251100Z 2512/2612 16005KT 9999 SCT040 TEMPO 2523/2604 0600 FG BKN002

Weather observations and forecasts of more than 4000 airports (METAR and TAF reports).

The available stations are represented by yellow and red dots on the map.

Hover mouse over dot to see the name of the station.

Then click to see weather observations and forecasts.

To change the map : click on the green buttons with a black cross to zoom in, on the green button with a dash to zoom out, or on the green arrows for adjacent maps.


METAR-TAF: